Time;durP1;ratioP1;P1;durP2;ratioP2;P2;SDS_P1;SDS_P2;PMS_P1;PMS_P2;Temp;Humidity;BMP_temperature;BMP_pressure;BME280_temperature;BME280_humidity;BME280_pressure;Samples;Min_cycle;Max_cycle;Signal;HPM_P1;HPM_P2
2023/12/19 00:02:19;;;;;;;20.10;17.20;;;4.50;99.90;;;;;;5140022;27;20497;-59
2023/12/19 00:04:46;;;;;;;18.93;15.80;;;4.50;99.90;;;;;;5140109;27;20462;-59
2023/12/19 00:07:14;;;;;;;18.17;14.83;;;4.50;99.90;;;;;;5139722;27;20884;-59
2023/12/19 00:09:42;;;;;;;22.30;16.07;;;4.50;99.90;;;;;;5139868;27;20582;-59
2023/12/19 00:12:09;;;;;;;21.90;17.10;;;4.50;99.90;;;;;;5140424;27;20457;-59
2023/12/19 00:14:36;;;;;;;20.40;15.20;;;4.50;99.90;;;;;;5139821;27;20873;-59
2023/12/19 00:17:04;;;;;;;22.63;16.00;;;4.60;99.90;;;;;;5139870;27;20526;-59
2023/12/19 00:19:31;;;;;;;20.13;15.73;;;4.50;99.90;;;;;;5140012;27;20531;-59
2023/12/19 00:21:59;;;;;;;17.13;15.17;;;4.50;99.90;;;;;;5139907;27;20939;-59
2023/12/19 00:24:28;;;;;;;22.90;17.23;;;4.50;99.90;;;;;;5139494;27;20811;-59
2023/12/19 00:26:55;;;;;;;21.90;16.40;;;4.50;99.90;;;;;;5139513;27;20454;-60
2023/12/19 00:29:22;;;;;;;21.03;16.97;;;4.50;99.90;;;;;;5139787;27;20477;-60
2023/12/19 00:31:51;;;;;;;20.53;15.37;;;4.50;99.90;;;;;;5140077;27;20454;-60
2023/12/19 00:34:18;;;;;;;20.53;16.13;;;4.50;99.90;;;;;;5139383;27;20505;-59
2023/12/19 00:36:46;;;;;;;19.77;15.63;;;4.50;99.90;;;;;;5139431;27;20537;-60
2023/12/19 00:39:14;;;;;;;18.43;15.80;;;4.50;99.90;;;;;;5139453;27;20835;-59
2023/12/19 00:41:42;;;;;;;17.40;15.50;;;4.50;99.90;;;;;;5140003;27;20903;-59
2023/12/19 00:44:10;;;;;;;19.83;14.20;;;4.50;99.90;;;;;;5139545;27;20492;-60
2023/12/19 00:46:37;;;;;;;18.00;13.97;;;4.50;99.90;;;;;;5139336;27;20827;-60
2023/12/19 00:49:04;;;;;;;19.70;14.50;;;4.50;99.90;;;;;;5139139;27;20507;-60
2023/12/19 00:51:31;;;;;;;17.40;14.63;;;4.50;99.90;;;;;;5139308;27;20938;-60
2023/12/19 00:53:59;;;;;;;18.30;15.07;;;4.50;99.90;;;;;;5139623;27;20507;-60
2023/12/19 00:56:26;;;;;;;19.17;15.57;;;4.40;99.90;;;;;;5139086;27;20530;-60
2023/12/19 00:58:55;;;;;;;16.47;14.20;;;4.50;99.90;;;;;;5138763;27;20461;-61
2023/12/19 01:01:24;;;;;;;18.17;14.70;;;4.40;99.90;;;;;;5138986;27;20561;-60
2023/12/19 01:03:51;;;;;;;17.80;15.13;;;4.40;99.90;;;;;;5139061;27;20754;-61
2023/12/19 01:06:19;;;;;;;19.77;13.70;;;4.40;99.90;;;;;;5138308;27;20504;-61
2023/12/19 01:08:46;;;;;;;15.57;13.70;;;4.40;99.90;;;;;;5138250;27;20502;-60
2023/12/19 01:11:13;;;;;;;15.20;13.60;;;4.40;99.90;;;;;;5138760;27;20554;-61
2023/12/19 01:13:41;;;;;;;17.80;15.40;;;4.40;99.90;;;;;;5138916;27;20549;-61
2023/12/19 01:16:09;;;;;;;16.97;15.27;;;4.40;99.90;;;;;;5139284;27;20872;-62
2023/12/19 01:18:37;;;;;;;18.57;15.30;;;4.40;99.90;;;;;;5139018;27;20458;-61
2023/12/19 01:21:05;;;;;;;15.70;12.00;;;4.40;99.90;;;;;;5138630;27;20717;-61
2023/12/19 01:23:32;;;;;;;14.33;12.80;;;4.40;99.90;;;;;;5138987;27;20943;-61
2023/12/19 01:25:59;;;;;;;19.17;14.40;;;4.30;99.90;;;;;;5138878;27;20799;-61
2023/12/19 01:28:26;;;;;;;16.30;13.30;;;4.30;99.90;;;;;;5138250;27;20462;-62
2023/12/19 01:30:53;;;;;;;15.53;13.40;;;4.30;99.90;;;;;;5138743;27;20471;-61
2023/12/19 01:33:22;;;;;;;15.93;13.50;;;4.30;99.90;;;;;;5138797;27;20537;-61
2023/12/19 01:35:50;;;;;;;16.13;13.00;;;4.30;99.90;;;;;;5138683;27;20569;-61
2023/12/19 01:38:17;;;;;;;16.50;13.87;;;4.30;99.90;;;;;;5138384;27;20490;-62
2023/12/19 01:40:44;;;;;;;15.13;13.40;;;4.30;99.90;;;;;;5138320;27;20546;-62
2023/12/19 01:43:22;;;;;;;18.77;15.77;;;4.30;99.90;;;;;;5138466;27;20461;-62
2023/12/19 01:45:51;;;;;;;20.50;14.70;;;4.30;99.90;;;;;;5138952;27;20494;-62
2023/12/19 01:48:19;;;;;;;16.20;13.93;;;4.30;99.90;;;;;;5138402;27;20426;-62
2023/12/19 01:50:48;;;;;;;15.93;14.00;;;4.30;99.90;;;;;;5138500;28;20558;-62
2023/12/19 01:53:16;;;;;;;17.00;14.40;;;4.30;99.90;;;;;;5138960;27;20514;-62
2023/12/19 01:55:43;;;;;;;15.97;13.83;;;4.30;99.90;;;;;;5138106;28;20483;-62
2023/12/19 01:58:12;;;;;;;17.80;14.07;;;4.30;99.90;;;;;;5138370;28;20497;-62
2023/12/19 02:00:39;;;;;;;17.97;13.00;;;4.30;99.90;;;;;;5138430;27;20490;-62
2023/12/19 02:03:06;;;;;;;15.00;12.70;;;4.30;99.90;;;;;;5138131;28;20461;-62
2023/12/19 02:05:39;;;;;;;13.80;12.40;;;4.30;99.90;;;;;;5137175;27;20541;-61
2023/12/19 02:08:08;;;;;;;16.63;13.57;;;4.20;99.90;;;;;;5137804;27;20537;-62
2023/12/19 02:10:35;;;;;;;17.27;13.90;;;4.30;99.90;;;;;;5130622;28;20455;-62
2023/12/19 02:13:02;;;;;;;18.20;14.90;;;4.30;99.90;;;;;;5139788;27;20479;-62
2023/12/19 02:18:14;;;;;;;16.63;14.03;;;4.30;99.90;;;;;;5535087;22;20502;-62
2023/12/19 02:20:42;;;;;;;17.20;14.03;;;4.30;99.90;;;;;;5019909;28;20498;-62
2023/12/19 02:23:11;;;;;;;16.47;14.40;;;4.30;99.90;;;;;;5019870;28;20514;-62
2023/12/19 02:25:38;;;;;;;17.60;15.00;;;4.20;99.90;;;;;;5021484;28;20484;-61
2023/12/19 02:28:05;;;;;;;16.13;14.10;;;4.30;99.90;;;;;;5020190;28;20439;-62
2023/12/19 02:30:34;;;;;;;18.60;16.37;;;4.30;99.90;;;;;;5020737;28;20826;-61
2023/12/19 02:33:02;;;;;;;16.80;14.53;;;4.30;99.90;;;;;;5020682;28;20814;-62
2023/12/19 02:35:29;;;;;;;16.23;13.77;;;4.30;99.90;;;;;;5021080;28;20805;-61
2023/12/19 02:37:56;;;;;;;18.90;14.83;;;4.30;99.90;;;;;;5021029;28;20538;-61
2023/12/19 02:40:25;;;;;;;17.27;14.60;;;4.30;99.90;;;;;;5020423;28;20479;-62
2023/12/19 02:42:52;;;;;;;18.40;13.27;;;4.30;99.90;;;;;;5020180;28;20533;-62
2023/12/19 02:45:20;;;;;;;16.57;13.17;;;4.30;99.90;;;;;;5019928;28;20904;-62
2023/12/19 02:47:48;;;;;;;16.40;14.57;;;4.20;99.90;;;;;;5020684;28;20435;-62
2023/12/19 02:50:15;;;;;;;19.67;14.37;;;4.30;99.90;;;;;;5020048;28;20475;-61
2023/12/19 02:52:43;;;;;;;16.90;13.63;;;4.30;99.90;;;;;;5020657;28;20467;-61
2023/12/19 02:55:10;;;;;;;17.07;15.07;;;4.20;99.90;;;;;;5020476;28;20466;-61
2023/12/19 02:57:39;;;;;;;16.27;13.77;;;4.30;99.90;;;;;;5020514;28;20946;-61
2023/12/19 03:00:08;;;;;;;13.17;11.73;;;4.20;99.90;;;;;;5020311;28;20460;-62
2023/12/19 03:02:35;;;;;;;15.50;13.20;;;4.20;99.90;;;;;;5020359;28;20466;-61
2023/12/19 03:05:02;;;;;;;15.20;13.00;;;4.30;99.90;;;;;;5020235;28;20482;-62
2023/12/19 03:07:31;;;;;;;15.77;13.57;;;4.30;99.90;;;;;;5020382;28;20558;-62
2023/12/19 03:09:59;;;;;;;16.00;14.20;;;4.30;99.90;;;;;;5020340;28;20554;-62
2023/12/19 03:12:26;;;;;;;15.57;13.50;;;4.40;99.90;;;;;;5019183;28;20863;-61
2023/12/19 03:14:54;;;;;;;15.40;13.70;;;4.40;99.90;;;;;;5020062;28;20519;-61
2023/12/19 03:17:22;;;;;;;16.00;13.50;;;4.40;99.90;;;;;;5019899;28;20587;-62
2023/12/19 03:19:48;;;;;;;19.37;14.07;;;4.40;99.90;;;;;;5019869;28;20494;-62
2023/12/19 03:22:15;;;;;;;16.13;14.43;;;4.30;99.90;;;;;;5019346;28;20869;-61
2023/12/19 03:24:42;;;;;;;15.80;13.17;;;4.30;99.90;;;;;;5019315;28;20460;-61
2023/12/19 03:27:09;;;;;;;16.37;13.37;;;4.40;99.90;;;;;;5019863;28;20426;-62
2023/12/19 03:29:37;;;;;;;16.60;14.03;;;4.40;99.90;;;;;;5019847;28;20438;-62
2023/12/19 03:32:07;;;;;;;15.10;13.00;;;4.40;99.90;;;;;;5020273;28;20468;-61
2023/12/19 03:34:36;;;;;;;16.37;13.30;;;4.40;99.90;;;;;;5019391;28;20442;-62
2023/12/19 03:37:04;;;;;;;14.77;12.90;;;4.40;99.90;;;;;;5019363;28;20496;-62
2023/12/19 03:39:31;;;;;;;16.87;13.37;;;4.30;99.90;;;;;;5019950;28;20459;-62
2023/12/19 03:41:59;;;;;;;17.43;14.10;;;4.30;99.90;;;;;;5019775;28;20464;-62
2023/12/19 03:44:26;;;;;;;17.20;14.30;;;4.40;99.90;;;;;;5019056;28;20488;-63
2023/12/19 03:46:53;;;;;;;20.40;14.17;;;4.30;99.90;;;;;;5019475;28;20803;-62
2023/12/19 03:49:22;;;;;;;19.13;15.27;;;4.30;99.90;;;;;;5019478;28;20466;-62
2023/12/19 03:51:49;;;;;;;17.80;13.97;;;4.30;99.90;;;;;;5019372;28;20456;-63
2023/12/19 03:54:17;;;;;;;19.40;15.57;;;4.20;99.90;;;;;;5019079;28;20518;-62
2023/12/19 03:56:44;;;;;;;17.87;14.43;;;4.20;99.90;;;;;;5019238;28;20772;-61
2023/12/19 03:59:11;;;;;;;18.33;14.10;;;4.20;99.90;;;;;;5018938;28;20564;-63
2023/12/19 04:01:45;;;;;;;16.03;13.87;;;4.20;99.90;;;;;;5018496;28;20546;-62
2023/12/19 04:04:17;;;;;;;19.33;15.87;;;4.30;99.90;;;;;;5019108;28;20930;-62
2023/12/19 04:06:45;;;;;;;23.20;16.87;;;4.30;99.90;;;;;;5019161;28;20917;-63
2023/12/19 04:09:12;;;;;;;21.40;15.60;;;4.30;99.90;;;;;;5019180;28;20551;-63
2023/12/19 04:11:46;;;;;;;22.20;15.87;;;4.20;99.90;;;;;;5019261;28;20555;-63
2023/12/19 04:14:14;;;;;;;20.20;15.77;;;4.20;99.90;;;;;;5018833;28;20518;-63
2023/12/19 04:16:41;;;;;;;23.00;16.97;;;4.30;99.90;;;;;;5018836;28;20872;-64
2023/12/19 04:19:08;;;;;;;20.00;14.80;;;4.30;99.90;;;;;;5018729;28;20500;-63
2023/12/19 04:21:36;;;;;;;21.50;15.97;;;4.30;99.90;;;;;;5018812;28;20627;-61
2023/12/19 04:24:05;;;;;;;23.33;16.70;;;4.40;99.90;;;;;;5018963;28;20492;-63
2023/12/19 04:26:32;;;;;;;23.63;17.83;;;4.30;99.90;;;;;;5018834;28;20482;-63
2023/12/19 04:29:00;;;;;;;20.27;15.90;;;4.40;99.90;;;;;;5014865;28;20458;-62
2023/12/19 04:31:27;;;;;;;25.13;16.73;;;4.40;99.90;;;;;;5012362;28;20944;-61
2023/12/19 04:33:54;;;;;;;20.77;16.17;;;4.40;99.90;;;;;;5018207;28;20467;-61
2023/12/19 04:36:21;;;;;;;22.40;16.87;;;4.50;99.90;;;;;;5018434;28;20959;-62
2023/12/19 04:38:48;;;;;;;20.77;15.07;;;4.50;99.90;;;;;;5018521;28;20492;-61
2023/12/19 04:41:17;;;;;;;20.50;15.10;;;4.50;99.90;;;;;;5013136;28;20981;-62
2023/12/19 04:43:44;;;;;;;19.33;14.00;;;4.50;99.90;;;;;;4998640;28;20457;-62
2023/12/19 04:46:12;;;;;;;18.13;15.10;;;4.50;99.90;;;;;;4998669;28;20563;-60
2023/12/19 04:48:39;;;;;;;19.00;15.40;;;4.50;99.90;;;;;;4999159;28;20862;-61
2023/12/19 04:51:06;;;;;;;21.73;14.80;;;4.50;99.90;;;;;;4998846;28;20460;-61
2023/12/19 04:53:33;;;;;;;19.67;14.77;;;4.50;99.90;;;;;;4999115;28;20500;-61
2023/12/19 04:56:01;;;;;;;17.70;14.50;;;4.40;99.90;;;;;;4999213;28;20496;-61
2023/12/19 04:58:29;;;;;;;17.90;14.63;;;4.40;99.90;;;;;;4998766;28;20559;-61
2023/12/19 05:00:56;;;;;;;20.17;14.20;;;4.40;99.90;;;;;;4998321;28;20513;-61
2023/12/19 05:03:25;;;;;;;20.33;13.50;;;4.40;99.90;;;;;;4996934;28;20716;-61
2023/12/19 05:05:52;;;;;;;17.53;14.57;;;4.40;99.90;;;;;;4997328;28;20907;-61
2023/12/19 05:08:19;;;;;;;16.43;13.33;;;4.40;99.90;;;;;;4996807;28;20496;-61
2023/12/19 05:10:47;;;;;;;17.70;14.00;;;4.40;99.90;;;;;;4997433;28;20500;-61
2023/12/19 05:13:14;;;;;;;16.60;13.03;;;4.40;99.90;;;;;;4997921;28;20518;-61
2023/12/19 05:15:44;;;;;;;16.50;13.33;;;4.50;99.90;;;;;;4998069;28;20505;-60
2023/12/19 05:18:11;;;;;;;18.33;14.70;;;4.50;99.90;;;;;;4997767;28;20501;-61
2023/12/19 05:20:38;;;;;;;15.50;12.40;;;4.50;99.90;;;;;;4998190;28;20559;-61
2023/12/19 05:23:06;;;;;;;16.83;13.57;;;4.50;99.90;;;;;;4998129;28;20555;-61
2023/12/19 05:25:33;;;;;;;16.23;12.90;;;4.50;99.90;;;;;;4998425;28;20532;-61
2023/12/19 05:28:00;;;;;;;17.70;13.00;;;4.60;99.90;;;;;;4998274;28;20480;-61
2023/12/19 05:30:27;;;;;;;18.37;13.77;;;4.60;99.90;;;;;;4998047;28;20905;-61
2023/12/19 05:32:56;;;;;;;18.00;12.70;;;4.60;99.90;;;;;;4998018;28;20465;-61
2023/12/19 05:35:23;;;;;;;14.97;13.03;;;4.60;99.90;;;;;;4998146;28;20469;-62
2023/12/19 05:37:51;;;;;;;14.43;12.17;;;4.60;99.90;;;;;;4998097;28;20475;-60
2023/12/19 05:40:18;;;;;;;15.93;12.40;;;4.60;99.90;;;;;;4998137;28;20559;-62
2023/12/19 05:42:46;;;;;;;14.40;11.67;;;4.70;99.90;;;;;;4997952;28;20440;-62
2023/12/19 05:45:13;;;;;;;13.50;11.17;;;4.70;99.90;;;;;;4997743;28;20563;-62
2023/12/19 05:47:40;;;;;;;16.23;12.17;;;4.70;99.90;;;;;;4998083;28;20946;-62
2023/12/19 05:50:09;;;;;;;13.67;11.77;;;4.70;99.90;;;;;;4998571;28;20899;-61
2023/12/19 05:52:36;;;;;;;13.53;12.00;;;4.70;99.90;;;;;;4997793;28;20560;-62
2023/12/19 05:55:04;;;;;;;17.67;12.03;;;4.70;99.90;;;;;;4997952;28;20465;-62
2023/12/19 05:57:32;;;;;;;13.30;11.67;;;4.70;99.90;;;;;;4998034;28;20461;-62
2023/12/19 05:59:59;;;;;;;13.90;11.53;;;4.70;99.90;;;;;;4998341;28;20870;-61
2023/12/19 06:02:27;;;;;;;13.57;11.83;;;4.80;99.90;;;;;;4998151;28;20999;-62
2023/12/19 06:04:54;;;;;;;14.87;10.83;;;4.80;99.90;;;;;;4998239;28;20499;-61
2023/12/19 06:07:23;;;;;;;15.37;10.93;;;4.80;99.90;;;;;;4998145;28;20488;-59
2023/12/19 06:09:50;;;;;;;14.23;11.00;;;4.80;99.90;;;;;;4998125;28;20440;-61
2023/12/19 06:12:17;;;;;;;12.57;10.60;;;4.90;99.90;;;;;;4997756;28;20551;-62
2023/12/19 06:14:45;;;;;;;14.80;10.17;;;4.90;99.90;;;;;;4997689;28;20808;-62
2023/12/19 06:17:12;;;;;;;12.73;10.77;;;4.90;99.90;;;;;;4997556;28;20560;-62
2023/12/19 06:19:40;;;;;;;15.57;11.27;;;5.00;99.90;;;;;;4997751;28;20497;-61
2023/12/19 06:22:08;;;;;;;12.93;11.03;;;5.00;99.90;;;;;;4996859;28;20461;-60
2023/12/19 06:24:37;;;;;;;11.90;9.83;;;5.00;99.90;;;;;;4996187;28;20720;-62
2023/12/19 06:27:04;;;;;;;13.83;10.20;;;5.00;99.90;;;;;;4997919;28;20534;-62
2023/12/19 06:29:31;;;;;;;17.83;11.50;;;5.00;99.90;;;;;;5008885;28;20482;-62
2023/12/19 06:31:58;;;;;;;14.70;12.23;;;5.10;99.90;;;;;;4997199;28;20556;-62
2023/12/19 06:34:28;;;;;;;17.80;11.60;;;5.10;99.90;;;;;;5014925;28;20456;-62
2023/12/19 06:36:56;;;;;;;14.00;11.40;;;5.10;99.90;;;;;;5015632;28;20456;-62
2023/12/19 06:39:23;;;;;;;12.70;11.30;;;5.10;99.90;;;;;;5016958;28;20586;-62
2023/12/19 06:41:53;;;;;;;11.97;10.70;;;5.20;99.90;;;;;;5017610;28;20462;-65
2023/12/19 06:44:20;;;;;;;14.53;12.47;;;5.20;99.90;;;;;;5017512;28;20464;-64
2023/12/19 06:46:49;;;;;;;13.50;11.77;;;5.20;99.90;;;;;;5017296;28;20488;-63
2023/12/19 06:49:18;;;;;;;14.10;11.60;;;5.10;99.90;;;;;;5016812;28;20467;-64
2023/12/19 06:51:45;;;;;;;16.97;12.97;;;5.10;99.90;;;;;;5016979;28;20468;-63
2023/12/19 06:54:13;;;;;;;16.60;13.30;;;5.10;99.90;;;;;;5000998;28;20772;-65
2023/12/19 06:56:40;;;;;;;17.10;12.70;;;5.10;99.90;;;;;;4997724;28;20520;-67
2023/12/19 06:59:09;;;;;;;14.90;12.90;;;5.10;99.90;;;;;;5000488;28;20496;-65
2023/12/19 07:01:36;;;;;;;17.47;13.73;;;5.10;99.90;;;;;;5004470;28;20551;-63
2023/12/19 07:04:05;;;;;;;15.50;13.77;;;5.00;99.90;;;;;;5016440;28;20465;-65
2023/12/19 07:06:32;;;;;;;16.70;13.13;;;5.10;99.90;;;;;;5007592;28;20466;-63
2023/12/19 07:08:59;;;;;;;18.20;13.47;;;5.10;99.90;;;;;;5013740;28;20456;-64
2023/12/19 07:11:27;;;;;;;18.87;13.07;;;5.10;99.90;;;;;;5010838;28;20460;-64
2023/12/19 07:13:54;;;;;;;15.80;13.00;;;5.10;99.90;;;;;;5020887;28;20464;-65
2023/12/19 07:16:25;;;;;;;16.70;13.07;;;5.10;99.90;;;;;;5020918;28;20464;-64
2023/12/19 07:18:52;;;;;;;16.63;12.40;;;5.10;99.90;;;;;;5020443;28;20509;-63
2023/12/19 07:21:22;;;;;;;13.90;11.70;;;5.10;99.90;;;;;;5020907;28;20770;-66
2023/12/19 07:23:49;;;;;;;13.57;11.60;;;5.10;99.90;;;;;;5020605;28;20435;-64
2023/12/19 07:26:23;;;;;;;13.73;11.60;;;5.20;99.90;;;;;;5020709;28;20438;-65
2023/12/19 07:28:51;;;;;;;14.40;11.57;;;5.20;99.90;;;;;;5020392;28;20955;-64
2023/12/19 07:31:24;;;;;;;12.27;10.97;;;5.10;99.90;;;;;;5020639;28;20460;-65
2023/12/19 07:33:54;;;;;;;14.87;11.33;;;5.20;99.90;;;;;;5020636;28;20509;-65
2023/12/19 07:36:22;;;;;;;12.60;10.70;;;5.20;99.90;;;;;;5020572;28;20551;-65
2023/12/19 07:38:49;;;;;;;12.20;11.00;;;5.20;99.90;;;;;;5021024;28;20496;-64
2023/12/19 07:41:16;;;;;;;13.60;10.63;;;5.20;99.90;;;;;;5008122;28;20735;-66
2023/12/19 07:43:43;;;;;;;13.50;11.40;;;5.20;99.90;;;;;;5000872;28;20469;-64
2023/12/19 07:46:11;;;;;;;13.57;10.50;;;5.20;99.90;;;;;;5000681;28;20436;-64
2023/12/19 07:48:39;;;;;;;12.40;11.10;;;5.20;99.90;;;;;;5000335;28;20461;-65
2023/12/19 07:51:07;;;;;;;12.83;10.73;;;5.30;99.90;;;;;;5000421;28;20555;-65
2023/12/19 07:53:35;;;;;;;15.00;10.27;;;5.30;99.90;;;;;;5000733;28;20534;-64
2023/12/19 07:56:04;;;;;;;11.37;10.17;;;5.30;99.90;;;;;;5000534;28;20466;-62
2023/12/19 07:58:31;;;;;;;13.00;10.90;;;5.30;99.90;;;;;;4999984;28;20925;-65
2023/12/19 08:00:58;;;;;;;12.33;10.57;;;5.30;99.90;;;;;;5000222;28;20464;-64
2023/12/19 08:03:26;;;;;;;12.60;10.10;;;5.30;99.90;;;;;;5000172;28;20538;-64
2023/12/19 08:05:56;;;;;;;10.30;9.20;;;5.30;99.90;;;;;;5008797;28;20779;-64
2023/12/19 08:08:23;;;;;;;12.57;9.50;;;5.40;99.90;;;;;;5009548;28;20435;-64
2023/12/19 08:10:50;;;;;;;12.60;9.50;;;5.40;99.90;;;;;;5000395;28;20432;-65
2023/12/19 08:13:20;;;;;;;13.60;10.20;;;5.40;99.90;;;;;;5000115;28;20464;-64
2023/12/19 08:15:48;;;;;;;11.97;9.63;;;5.40;99.90;;;;;;5000055;28;20465;-65
2023/12/19 08:18:15;;;;;;;10.57;9.20;;;5.40;99.90;;;;;;5015099;28;20455;-65
2023/12/19 08:20:43;;;;;;;10.80;8.50;;;5.40;99.90;;;;;;5001661;28;20461;-63
2023/12/19 08:23:11;;;;;;;10.10;8.93;;;5.40;99.90;;;;;;4999330;28;20461;-65
2023/12/19 08:25:41;;;;;;;9.93;8.47;;;5.40;99.90;;;;;;4999789;28;20490;-63
2023/12/19 08:28:08;;;;;;;10.73;8.53;;;5.40;99.90;;;;;;5003150;28;20439;-64
2023/12/19 08:30:35;;;;;;;9.20;8.10;;;5.40;99.90;;;;;;5013370;28;20461;-64
2023/12/19 08:33:03;;;;;;;9.40;8.50;;;5.40;99.90;;;;;;5005603;28;20464;-64
2023/12/19 08:35:30;;;;;;;11.90;8.83;;;5.50;99.90;;;;;;5019900;28;20470;-65
2023/12/19 08:37:57;;;;;;;9.03;8.13;;;5.50;99.90;;;;;;5020056;28;20456;-65
2023/12/19 08:40:26;;;;;;;9.43;8.43;;;5.50;99.90;;;;;;5009450;28;20481;-65
2023/12/19 08:42:54;;;;;;;9.77;8.47;;;5.40;99.90;;;;;;4999755;28;20475;-65
2023/12/19 08:45:22;;;;;;;10.37;8.20;;;5.40;99.90;;;;;;4999845;28;20523;-66
2023/12/19 08:47:50;;;;;;;14.00;8.93;;;5.40;99.90;;;;;;4999023;28;20446;-66
2023/12/19 08:50:18;;;;;;;12.30;8.93;;;5.40;99.90;;;;;;4998836;28;20460;-64
2023/12/19 08:52:47;;;;;;;10.90;9.40;;;5.30;99.90;;;;;;5017062;28;20530;-65
2023/12/19 08:55:14;;;;;;;12.70;10.30;;;5.40;99.90;;;;;;4999616;28;20439;-65
2023/12/19 08:57:44;;;;;;;12.47;9.90;;;5.40;99.90;;;;;;4999488;28;20911;-65
2023/12/19 09:00:16;;;;;;;9.80;8.37;;;5.30;99.90;;;;;;4998873;28;20503;-65
2023/12/19 09:02:43;;;;;;;12.77;9.33;;;5.30;99.90;;;;;;5004417;28;20457;-65
2023/12/19 09:05:11;;;;;;;12.23;10.00;;;5.40;99.90;;;;;;5011310;28;20526;-64
2023/12/19 09:07:38;;;;;;;11.57;10.37;;;5.40;99.90;;;;;;5007635;28;20533;-65
2023/12/19 09:10:06;;;;;;;11.10;9.40;;;5.40;99.90;;;;;;5009255;28;20452;-64
2023/12/19 09:12:34;;;;;;;12.83;9.77;;;5.40;99.90;;;;;;4999158;28;20471;-64
2023/12/19 09:15:05;;;;;;;12.37;10.60;;;5.40;99.90;;;;;;4998662;28;20464;-66
2023/12/19 09:17:32;;;;;;;12.33;10.10;;;5.40;99.90;;;;;;4999076;28;20465;-65
2023/12/19 09:20:04;;;;;;;11.13;9.50;;;5.40;99.90;;;;;;4998749;28;20507;-65
2023/12/19 09:22:31;;;;;;;14.90;10.97;;;5.40;99.90;;;;;;4999036;28;20447;-65
2023/12/19 09:24:59;;;;;;;13.03;10.73;;;5.50;99.90;;;;;;5017838;28;20455;-64
2023/12/19 09:27:26;;;;;;;13.63;10.20;;;5.40;99.90;;;;;;5001447;28;20465;-65
2023/12/19 09:29:53;;;;;;;11.00;9.50;;;5.50;99.90;;;;;;5018947;28;20462;-63
2023/12/19 09:32:22;;;;;;;11.23;10.03;;;5.50;99.90;;;;;;5017987;28;20460;-66
2023/12/19 09:34:49;;;;;;;11.77;10.57;;;5.50;99.90;;;;;;5017338;28;20547;-65
2023/12/19 09:37:17;;;;;;;11.13;9.23;;;5.50;99.90;;;;;;5017371;28;20460;-65
2023/12/19 09:39:47;;;;;;;11.40;9.87;;;5.50;99.90;;;;;;5017806;28;20583;-66
2023/12/19 09:42:17;;;;;;;11.10;10.00;;;5.50;99.90;;;;;;5017936;28;20467;-65
2023/12/19 09:44:44;;;;;;;13.53;10.00;;;5.50;99.90;;;;;;5017121;28;20464;-66
2023/12/19 09:47:13;;;;;;;12.27;9.70;;;5.50;99.90;;;;;;5017220;28;20470;-66
2023/12/19 09:49:44;;;;;;;13.87;9.00;;;5.50;99.90;;;;;;5018152;28;20464;-66
2023/12/19 09:52:14;;;;;;;10.60;9.50;;;5.50;99.90;;;;;;5017347;28;20463;-66
2023/12/19 09:54:42;;;;;;;10.70;8.60;;;5.50;99.90;;;;;;5017549;28;20464;-66
2023/12/19 09:57:12;;;;;;;11.70;9.30;;;5.50;99.90;;;;;;5017667;28;20745;-65
2023/12/19 09:59:43;;;;;;;11.10;9.20;;;5.50;99.90;;;;;;5011674;28;20493;-66
2023/12/19 10:02:11;;;;;;;9.17;7.33;;;5.50;99.90;;;;;;4998219;28;20917;-66
2023/12/19 10:04:39;;;;;;;10.90;9.13;;;5.50;99.90;;;;;;4997684;28;20871;-66
2023/12/19 10:07:07;;;;;;;11.80;8.47;;;5.50;99.90;;;;;;4997462;28;20461;-67
2023/12/19 10:09:34;;;;;;;10.33;9.23;;;5.60;99.90;;;;;;4997100;28;20945;-66
2023/12/19 10:12:07;;;;;;;12.30;9.30;;;5.60;99.90;;;;;;4998516;28;20465;-66
2023/12/19 10:14:34;;;;;;;10.20;9.03;;;5.60;99.90;;;;;;4997832;28;20519;-66
2023/12/19 10:17:04;;;;;;;10.27;8.63;;;5.60;99.90;;;;;;4997293;28;20461;-66
2023/12/19 10:19:33;;;;;;;11.87;8.50;;;5.70;99.90;;;;;;4997553;28;20823;-66
2023/12/19 10:22:08;;;;;;;9.63;8.63;;;5.60;99.90;;;;;;4997726;28;20456;-67
2023/12/19 10:24:35;;;;;;;10.70;9.00;;;5.60;99.90;;;;;;4997456;28;20474;-66
2023/12/19 10:27:06;;;;;;;10.27;9.03;;;5.60;99.90;;;;;;4997152;28;20464;-66
2023/12/19 10:29:37;;;;;;;10.40;8.10;;;5.60;99.90;;;;;;4998293;28;20548;-66
2023/12/19 10:32:16;;;;;;;12.13;8.57;;;5.60;99.90;;;;;;4998180;28;20471;-66
2023/12/19 10:34:45;;;;;;;9.80;8.20;;;5.70;99.90;;;;;;5001072;28;20469;-66
2023/12/19 10:37:17;;;;;;;13.93;8.50;;;5.70;99.90;;;;;;5001784;28;20523;-66
2023/12/19 10:39:45;;;;;;;9.27;8.10;;;5.70;99.90;;;;;;5001439;28;20521;-66
2023/12/19 10:42:13;;;;;;;10.30;9.23;;;5.80;99.90;;;;;;5000567;28;20461;-66
2023/12/19 10:44:41;;;;;;;8.87;7.23;;;5.80;99.90;;;;;;5018415;28;20460;-64
2023/12/19 10:47:08;;;;;;;11.13;8.10;;;5.80;99.90;;;;;;5001682;28;20461;-67
2023/12/19 10:49:37;;;;;;;8.60;6.97;;;5.80;99.90;;;;;;5020930;28;20524;-66
2023/12/19 10:52:07;;;;;;;9.93;6.77;;;5.80;99.90;;;;;;5021041;28;20459;-66
2023/12/19 10:54:37;;;;;;;10.10;7.63;;;5.80;99.90;;;;;;5020778;28;20861;-66
2023/12/19 10:57:11;;;;;;;11.03;7.43;;;5.80;99.90;;;;;;5020241;28;20472;-66
2023/12/19 10:59:49;;;;;;;8.87;7.00;;;5.80;99.90;;;;;;5021361;28;20495;-67
2023/12/19 11:02:37;;;;;;;8.40;6.50;;;5.80;99.90;;;;;;5021281;28;20770;-68
2023/12/19 11:05:18;;;;;;;9.77;6.07;;;5.80;99.90;;;;;;5021032;28;20893;-66
2023/12/19 11:07:47;;;;;;;6.77;5.90;;;5.80;99.90;;;;;;5021529;28;20554;-65
2023/12/19 11:10:19;;;;;;;6.53;5.60;;;5.80;99.90;;;;;;5020656;28;20519;-65
2023/12/19 11:12:47;;;;;;;7.83;5.40;;;5.80;99.90;;;;;;5019949;28;20535;-64
2023/12/19 11:15:15;;;;;;;7.03;5.43;;;5.80;99.90;;;;;;5020273;28;20549;-66
2023/12/19 11:17:51;;;;;;;6.60;5.10;;;5.80;99.90;;;;;;5020506;28;20441;-66
2023/12/19 11:20:24;;;;;;;7.10;5.70;;;5.80;99.90;;;;;;5021056;28;20505;-67
2023/12/19 11:23:02;;;;;;;5.50;4.77;;;5.90;99.90;;;;;;5020782;28;20503;-65
2023/12/19 11:25:35;;;;;;;9.87;5.20;;;5.80;99.90;;;;;;5019312;28;20474;-66
2023/12/19 11:28:04;;;;;;;6.33;4.93;;;5.80;99.90;;;;;;5000953;28;20551;-66
2023/12/19 11:30:36;;;;;;;7.40;5.67;;;5.90;99.90;;;;;;5000874;28;20561;-67
2023/12/19 11:33:07;;;;;;;6.50;5.07;;;5.80;99.90;;;;;;5001822;28;20468;-66
2023/12/19 11:35:35;;;;;;;7.40;5.30;;;5.90;99.90;;;;;;5001292;28;20485;-65
2023/12/19 11:38:25;;;;;;;5.70;4.50;;;5.90;99.90;;;;;;5002373;28;20472;-66
2023/12/19 11:40:55;;;;;;;6.70;4.43;;;5.90;99.90;;;;;;5002174;28;20497;-66
2023/12/19 11:43:58;;;;;;;5.57;4.60;;;5.90;99.90;;;;;;5008799;28;20515;-66
2023/12/19 11:46:26;;;;;;;5.83;3.90;;;5.90;99.90;;;;;;5001550;28;20461;-66
2023/12/19 11:48:56;;;;;;;8.40;4.77;;;6.00;99.90;;;;;;5002924;28;20457;-66
2023/12/19 11:51:50;;;;;;;8.10;4.10;;;6.00;99.90;;;;;;4988873;28;20450;-64
2023/12/19 11:54:18;;;;;;;6.10;4.50;;;6.00;99.90;;;;;;5011822;28;20467;-66
2023/12/19 11:56:57;;;;;;;6.07;4.43;;;6.00;99.90;;;;;;5011898;28;20456;-64
2023/12/19 11:59:24;;;;;;;4.77;4.23;;;6.10;99.90;;;;;;5021458;28;20462;-66
2023/12/19 12:01:54;;;;;;;6.30;4.50;;;6.10;99.90;;;;;;5021414;28;20459;-67
2023/12/19 12:04:21;;;;;;;6.13;4.70;;;6.10;99.90;;;;;;5019382;28;20456;-66
2023/12/19 12:06:49;;;;;;;5.03;3.87;;;6.10;99.90;;;;;;5019689;28;20468;-66
2023/12/19 12:09:19;;;;;;;6.70;4.60;;;6.10;99.90;;;;;;4998788;28;20461;-66
2023/12/19 12:11:52;;;;;;;7.90;4.50;;;6.10;99.90;;;;;;4997939;28;20461;-66
2023/12/19 12:14:20;;;;;;;6.37;4.23;;;6.10;99.90;;;;;;4998917;28;20880;-66
2023/12/19 12:16:48;;;;;;;5.93;4.10;;;6.10;99.90;;;;;;4999223;28;20472;-66
2023/12/19 12:19:17;;;;;;;7.00;3.93;;;6.10;99.90;;;;;;4998156;28;20456;-66
2023/12/19 12:21:45;;;;;;;5.97;4.83;;;6.10;99.90;;;;;;4999815;28;20508;-66
2023/12/19 12:24:20;;;;;;;7.30;4.20;;;6.20;99.90;;;;;;5000314;28;20468;-64
2023/12/19 12:26:48;;;;;;;5.57;3.70;;;6.20;99.90;;;;;;5000061;28;20464;-70
2023/12/19 12:29:19;;;;;;;6.00;3.97;;;6.20;99.90;;;;;;4999225;28;20464;-70
2023/12/19 12:31:47;;;;;;;4.83;4.10;;;6.20;99.90;;;;;;4999646;28;20469;-69
2023/12/19 12:34:16;;;;;;;4.77;4.17;;;6.20;99.90;;;;;;4998881;28;20882;-70
2023/12/19 12:36:49;;;;;;;4.70;3.83;;;6.30;99.90;;;;;;4998651;28;20461;-69
2023/12/19 12:39:20;;;;;;;5.90;4.77;;;6.30;99.90;;;;;;4998624;28;20478;-69
2023/12/19 12:41:48;;;;;;;6.60;4.63;;;6.40;99.90;;;;;;4998817;28;20499;-69
2023/12/19 12:44:16;;;;;;;6.80;4.47;;;6.30;99.90;;;;;;4998372;28;20549;-69
2023/12/19 12:46:44;;;;;;;5.10;4.20;;;6.40;99.90;;;;;;4997874;28;20472;-69
2023/12/19 12:49:17;;;;;;;8.63;4.37;;;6.40;99.90;;;;;;4998621;28;20527;-70
2023/12/19 12:51:44;;;;;;;6.77;4.30;;;6.40;99.90;;;;;;4998822;28;20555;-70
2023/12/19 12:54:11;;;;;;;4.23;3.83;;;6.50;99.90;;;;;;4997926;28;20468;-68